UAL144 KMIA-KJAX
Flight info
| Callsign | UAL144 |
|---|---|
| Flight time | 0h 57m |
| Altitude | 30000 |
| Route | FLMGO2 STYMY ORL/N0446F290 HAINY QUBEN1 |
| Aircraft | B738/M-SDE2E3FGHIRWXY/LB1 |
Departure
| Time | 2026-05-04 19:01 |
|---|---|
| Airport | Miami International Airport (KMIA) |
Arrival
| Time | 2026-05-04 19:58 |
|---|---|
| Airport | Jacksonville International Airport (KJAX) |
| Time | Latitude | Longitude | Altitude | Speed | Heading |
|---|---|---|---|---|---|
| 2026-05-04 18:42 | 25.79821 | -80.28318 | 12 ft | 0 kts | 178° |
| 2026-05-04 18:54 | 25.79832 | -80.28318 | 11 ft | 2 kts | 178° |
| 2026-05-04 18:54 | 25.79847 | -80.28319 | 11 ft | 2 kts | 191° |
| 2026-05-04 18:54 | 25.79861 | -80.28313 | 11 ft | 2 kts | 207° |
| 2026-05-04 18:55 | 25.79874 | -80.28304 | 11 ft | 2 kts | 224° |
| 2026-05-04 18:55 | 25.79889 | -80.28276 | 11 ft | 2 kts | 257° |
| 2026-05-04 18:55 | 25.79891 | -80.28266 | 11 ft | 1 kts | 267° |
| 2026-05-04 18:56 | 25.79891 | -80.28260 | 11 ft | 0 kts | 268° |
| 2026-05-04 18:56 | 25.79888 | -80.28292 | 11 ft | 0 kts | 268° |
| 2026-05-04 18:57 | 25.79888 | -80.28297 | 11 ft | 4 kts | 268° |
| 2026-05-04 18:58 | 25.79902 | -80.28417 | 11 ft | 17 kts | 310° |
| 2026-05-04 18:58 | 25.79954 | -80.28503 | 11 ft | 12 kts | 306° |
| 2026-05-04 18:58 | 25.80024 | -80.28575 | 11 ft | 17 kts | 281° |
| 2026-05-04 18:58 | 25.80020 | -80.28749 | 11 ft | 27 kts | 268° |
| 2026-05-04 18:59 | 25.80012 | -80.28993 | 11 ft | 34 kts | 266° |
| 2026-05-04 18:59 | 25.79998 | -80.29252 | 11 ft | 33 kts | 268° |
| 2026-05-04 18:59 | 25.79987 | -80.29504 | 11 ft | 31 kts | 268° |
| 2026-05-04 18:59 | 25.79978 | -80.29734 | 11 ft | 27 kts | 266° |
| 2026-05-04 19:00 | 25.79973 | -80.29941 | 11 ft | 24 kts | 278° |
| 2026-05-04 19:00 | 25.80042 | -80.30090 | 11 ft | 17 kts | 353° |
| 2026-05-04 19:00 | 25.80079 | -80.29990 | 11 ft | 15 kts | 86° |
| 2026-05-04 19:00 | 25.80090 | -80.29766 | 11 ft | 61 kts | 85° |
| 2026-05-04 19:01 | 25.80119 | -80.29012 | 12 ft | 131 kts | 87° |
| 2026-05-04 19:01 | 25.80158 | -80.27782 | 129 ft | 178 kts | 86° |
| 2026-05-04 19:01 | 25.80234 | -80.26414 | 806 ft | 187 kts | 83° |
| 2026-05-04 19:01 | 25.80352 | -80.24914 | 1375 ft | 198 kts | 84° |
| 2026-05-04 19:02 | 25.80439 | -80.23346 | 1931 ft | 212 kts | 85° |
| 2026-05-04 19:02 | 25.80505 | -80.21634 | 2407 ft | 230 kts | 86° |
| 2026-05-04 19:02 | 25.80641 | -80.19788 | 2949 ft | 245 kts | 77° |
| 2026-05-04 19:02 | 25.81350 | -80.17959 | 3534 ft | 257 kts | 51° |
| 2026-05-04 19:03 | 25.82813 | -80.16628 | 4305 ft | 262 kts | 27° |
| 2026-05-04 19:03 | 25.84674 | -80.15886 | 5058 ft | 269 kts | 9° |
| 2026-05-04 19:03 | 25.86597 | -80.15713 | 5841 ft | 273 kts | 0° |
| 2026-05-04 19:03 | 25.88560 | -80.15705 | 6581 ft | 278 kts | 355° |
| 2026-05-04 19:04 | 25.90518 | -80.16047 | 7340 ft | 279 kts | 342° |
| 2026-05-04 19:04 | 25.92475 | -80.16714 | 8141 ft | 282 kts | 338° |
| 2026-05-04 19:04 | 25.94418 | -80.17435 | 8883 ft | 286 kts | 338° |
| 2026-05-04 19:04 | 25.96438 | -80.18172 | 9673 ft | 289 kts | 338° |
| 2026-05-04 19:05 | 25.98401 | -80.18926 | 10387 ft | 292 kts | 333° |
| 2026-05-04 19:05 | 26.00195 | -80.20082 | 10787 ft | 300 kts | 317° |
| 2026-05-04 19:05 | 26.01881 | -80.21734 | 11262 ft | 311 kts | 312° |
| 2026-05-04 19:05 | 26.03541 | -80.23514 | 11690 ft | 324 kts | 312° |
| 2026-05-04 19:06 | 26.05216 | -80.25284 | 12153 ft | 335 kts | 313° |
| 2026-05-04 19:06 | 26.06952 | -80.27055 | 12898 ft | 336 kts | 314° |
| 2026-05-04 19:06 | 26.08732 | -80.28831 | 13593 ft | 339 kts | 314° |
| 2026-05-04 19:06 | 26.10536 | -80.30619 | 14235 ft | 342 kts | 314° |
| 2026-05-04 19:07 | 26.12330 | -80.32396 | 14847 ft | 346 kts | 314° |
| 2026-05-04 19:07 | 26.14122 | -80.34174 | 15486 ft | 348 kts | 314° |
| 2026-05-04 19:07 | 26.15939 | -80.35980 | 16115 ft | 350 kts | 314° |
| 2026-05-04 19:07 | 26.17795 | -80.37826 | 16660 ft | 355 kts | 314° |
| 2026-05-04 19:08 | 26.19648 | -80.39668 | 17237 ft | 358 kts | 314° |
| 2026-05-04 19:08 | 26.21548 | -80.41470 | 17818 ft | 361 kts | 316° |
| 2026-05-04 19:08 | 26.23644 | -80.43145 | 18356 ft | 368 kts | 322° |
| 2026-05-04 19:08 | 26.25908 | -80.44592 | 18853 ft | 375 kts | 327° |
| 2026-05-04 19:09 | 26.28267 | -80.45894 | 19483 ft | 376 kts | 329° |
| 2026-05-04 19:09 | 26.30649 | -80.47135 | 19949 ft | 381 kts | 329° |
| 2026-05-04 19:09 | 26.33066 | -80.48378 | 20450 ft | 384 kts | 329° |
| 2026-05-04 19:09 | 26.35483 | -80.49625 | 20981 ft | 386 kts | 329° |
| 2026-05-04 19:10 | 26.37953 | -80.50909 | 21531 ft | 387 kts | 329° |
| 2026-05-04 19:10 | 26.40370 | -80.52174 | 22019 ft | 389 kts | 329° |
| 2026-05-04 19:10 | 26.42830 | -80.53471 | 22454 ft | 392 kts | 329° |
| 2026-05-04 19:10 | 26.45310 | -80.54783 | 22898 ft | 395 kts | 329° |
| 2026-05-04 19:11 | 26.47833 | -80.56046 | 23391 ft | 399 kts | 332° |
| 2026-05-04 19:11 | 26.50474 | -80.57134 | 23831 ft | 405 kts | 335° |
| 2026-05-04 19:11 | 26.53212 | -80.58089 | 24339 ft | 407 kts | 337° |
| 2026-05-04 19:11 | 26.56078 | -80.59006 | 24773 ft | 410 kts | 338° |
| 2026-05-04 19:12 | 26.59010 | -80.59912 | 25151 ft | 415 kts | 338° |
| 2026-05-04 19:12 | 26.64854 | -80.61711 | 26163 ft | 415 kts | 338° |
| 2026-05-04 19:12 | 26.67783 | -80.62622 | 26741 ft | 413 kts | 338° |
| 2026-05-04 19:13 | 26.70732 | -80.63541 | 27443 ft | 408 kts | 337° |
| 2026-05-04 19:13 | 26.73743 | -80.64486 | 28116 ft | 403 kts | 337° |
| 2026-05-04 19:13 | 26.76664 | -80.65407 | 28704 ft | 400 kts | 336° |
| 2026-05-04 19:13 | 26.79638 | -80.66352 | 29257 ft | 398 kts | 336° |
| 2026-05-04 19:14 | 26.82484 | -80.67258 | 29786 ft | 396 kts | 335° |
| 2026-05-04 19:14 | 26.85382 | -80.68185 | 30264 ft | 395 kts | 336° |
| 2026-05-04 19:14 | 26.88266 | -80.69107 | 30704 ft | 395 kts | 335° |
| 2026-05-04 19:14 | 26.91200 | -80.70048 | 31029 ft | 396 kts | 335° |
| 2026-05-04 19:15 | 26.94153 | -80.71061 | 31026 ft | 397 kts | 333° |
| 2026-05-04 19:15 | 26.99694 | -80.73163 | 31028 ft | 390 kts | 332° |
| 2026-05-04 19:16 | 27.04851 | -80.75170 | 31035 ft | 393 kts | 333° |
| 2026-05-04 19:16 | 27.10052 | -80.77169 | 31031 ft | 393 kts | 333° |
| 2026-05-04 19:17 | 27.15233 | -80.79143 | 31031 ft | 392 kts | 333° |
| 2026-05-04 19:17 | 27.20483 | -80.81139 | 31032 ft | 394 kts | 333° |
| 2026-05-04 19:18 | 27.25737 | -80.83131 | 31031 ft | 391 kts | 333° |
| 2026-05-04 19:18 | 27.30946 | -80.85117 | 31035 ft | 400 kts | 333° |
| 2026-05-04 19:19 | 27.36357 | -80.87255 | 31030 ft | 413 kts | 332° |
| 2026-05-04 19:19 | 27.41924 | -80.89566 | 31028 ft | 427 kts | 332° |
| 2026-05-04 19:20 | 27.47613 | -80.91936 | 31033 ft | 441 kts | 332° |
| 2026-05-04 19:20 | 27.53562 | -80.94397 | 31031 ft | 449 kts | 332° |
| 2026-05-04 19:21 | 27.59388 | -80.96789 | 31038 ft | 447 kts | 332° |
| 2026-05-04 19:21 | 27.65245 | -80.99198 | 31034 ft | 447 kts | 332° |
| 2026-05-04 19:22 | 27.71303 | -81.01699 | 31040 ft | 447 kts | 332° |
| 2026-05-04 19:22 | 27.77167 | -81.04123 | 31039 ft | 446 kts | 332° |
| 2026-05-04 19:23 | 27.83043 | -81.06558 | 31043 ft | 449 kts | 332° |
| 2026-05-04 19:23 | 27.88902 | -81.08988 | 31044 ft | 446 kts | 332° |
| 2026-05-04 19:24 | 27.94737 | -81.11409 | 31041 ft | 446 kts | 332° |
| 2026-05-04 19:24 | 28.00619 | -81.13853 | 31041 ft | 447 kts | 332° |
| 2026-05-04 19:25 | 28.06485 | -81.16248 | 31039 ft | 448 kts | 333° |
| 2026-05-04 19:25 | 28.12425 | -81.18422 | 31049 ft | 450 kts | 335° |
| 2026-05-04 19:26 | 28.18417 | -81.20537 | 31055 ft | 451 kts | 335° |
| 2026-05-04 19:26 | 28.24421 | -81.22666 | 31052 ft | 448 kts | 335° |
| 2026-05-04 19:27 | 28.30399 | -81.24811 | 31063 ft | 449 kts | 334° |
| 2026-05-04 19:27 | 28.36378 | -81.26971 | 31057 ft | 448 kts | 334° |
| 2026-05-04 19:28 | 28.42314 | -81.29125 | 31064 ft | 448 kts | 335° |
| 2026-05-04 19:28 | 28.48252 | -81.31284 | 31057 ft | 448 kts | 335° |
| 2026-05-04 19:29 | 28.54311 | -81.33248 | 31057 ft | 454 kts | 340° |
| 2026-05-04 19:29 | 28.60611 | -81.34270 | 31051 ft | 461 kts | 347° |
| 2026-05-04 19:30 | 28.67071 | -81.34822 | 31060 ft | 462 kts | 349° |
| 2026-05-04 19:30 | 28.72986 | -81.35250 | 31053 ft | 463 kts | 349° |
| 2026-05-04 19:31 | 28.79285 | -81.35712 | 31048 ft | 439 kts | 348° |
| 2026-05-04 19:31 | 28.82252 | -81.35931 | 31059 ft | 421 kts | 348° |
| 2026-05-04 19:31 | 28.85132 | -81.36149 | 30958 ft | 408 kts | 348° |
| 2026-05-04 19:31 | 28.87975 | -81.36381 | 30338 ft | 404 kts | 347° |
| 2026-05-04 19:32 | 28.90732 | -81.36613 | 29913 ft | 389 kts | 347° |
| 2026-05-04 19:32 | 28.93379 | -81.36839 | 29486 ft | 377 kts | 347° |
| 2026-05-04 19:32 | 28.95984 | -81.37062 | 29044 ft | 365 kts | 347° |
| 2026-05-04 19:32 | 28.98466 | -81.37282 | 28382 ft | 361 kts | 347° |
| 2026-05-04 19:33 | 29.00952 | -81.37518 | 27749 ft | 355 kts | 346° |
| 2026-05-04 19:33 | 29.03411 | -81.37781 | 27317 ft | 343 kts | 346° |
| 2026-05-04 19:33 | 29.05750 | -81.38045 | 26924 ft | 332 kts | 346° |
| 2026-05-04 19:33 | 29.08030 | -81.38306 | 26540 ft | 326 kts | 345° |
| 2026-05-04 19:34 | 29.10347 | -81.38583 | 26190 ft | 341 kts | 346° |
| 2026-05-04 19:34 | 29.12776 | -81.38877 | 25712 ft | 350 kts | 346° |
| 2026-05-04 19:34 | 29.15229 | -81.39158 | 25295 ft | 349 kts | 347° |
| 2026-05-04 19:34 | 29.17657 | -81.39421 | 24897 ft | 345 kts | 347° |
| 2026-05-04 19:35 | 29.20080 | -81.39681 | 24467 ft | 342 kts | 347° |
| 2026-05-04 19:35 | 29.22502 | -81.39943 | 24050 ft | 338 kts | 347° |
| 2026-05-04 19:35 | 29.24859 | -81.40201 | 23632 ft | 335 kts | 347° |
| 2026-05-04 19:35 | 29.27228 | -81.40462 | 23225 ft | 331 kts | 347° |
| 2026-05-04 19:36 | 29.29551 | -81.40719 | 22826 ft | 328 kts | 347° |
| 2026-05-04 19:36 | 29.31865 | -81.40975 | 22424 ft | 325 kts | 347° |
| 2026-05-04 19:36 | 29.34145 | -81.41228 | 22026 ft | 323 kts | 348° |
| 2026-05-04 19:36 | 29.36432 | -81.41481 | 21633 ft | 320 kts | 348° |
| 2026-05-04 19:37 | 29.38705 | -81.41733 | 21239 ft | 317 kts | 348° |
| 2026-05-04 19:37 | 29.40890 | -81.41974 | 20850 ft | 315 kts | 348° |
| 2026-05-04 19:37 | 29.43051 | -81.42212 | 20474 ft | 313 kts | 348° |
| 2026-05-04 19:37 | 29.45242 | -81.42455 | 20086 ft | 310 kts | 348° |
| 2026-05-04 19:38 | 29.47491 | -81.42705 | 19688 ft | 308 kts | 349° |
| 2026-05-04 19:38 | 29.49744 | -81.42954 | 19282 ft | 306 kts | 349° |
| 2026-05-04 19:38 | 29.51916 | -81.43195 | 18911 ft | 303 kts | 349° |
| 2026-05-04 19:38 | 29.54068 | -81.43435 | 18536 ft | 301 kts | 349° |
| 2026-05-04 19:39 | 29.56213 | -81.43677 | 18165 ft | 298 kts | 348° |
| 2026-05-04 19:39 | 29.58273 | -81.44160 | 17747 ft | 291 kts | 335° |
| 2026-05-04 19:39 | 29.60042 | -81.45298 | 17336 ft | 282 kts | 315° |
| 2026-05-04 19:39 | 29.61453 | -81.46841 | 16984 ft | 277 kts | 311° |
| 2026-05-04 19:40 | 29.62798 | -81.48433 | 16650 ft | 274 kts | 311° |
| 2026-05-04 19:40 | 29.64131 | -81.50002 | 16315 ft | 273 kts | 312° |
| 2026-05-04 19:40 | 29.65520 | -81.51620 | 15974 ft | 286 kts | 312° |
| 2026-05-04 19:40 | 29.66942 | -81.53266 | 15599 ft | 293 kts | 313° |
| 2026-05-04 19:41 | 29.68421 | -81.54969 | 15099 ft | 295 kts | 313° |
| 2026-05-04 19:41 | 29.69876 | -81.56644 | 14645 ft | 294 kts | 313° |
| 2026-05-04 19:41 | 29.71328 | -81.58317 | 14221 ft | 292 kts | 313° |
| 2026-05-04 19:41 | 29.72813 | -81.60031 | 13803 ft | 289 kts | 314° |
| 2026-05-04 19:42 | 29.74255 | -81.61697 | 13382 ft | 287 kts | 314° |
| 2026-05-04 19:42 | 29.75675 | -81.63316 | 12907 ft | 285 kts | 316° |
| 2026-05-04 19:42 | 29.77267 | -81.64664 | 12435 ft | 285 kts | 333° |
| 2026-05-04 19:42 | 29.79252 | -81.65260 | 11989 ft | 287 kts | 352° |
| 2026-05-04 19:43 | 29.81419 | -81.65406 | 11519 ft | 287 kts | 355° |
| 2026-05-04 19:43 | 29.83481 | -81.65507 | 11033 ft | 285 kts | 354° |
| 2026-05-04 19:43 | 29.85523 | -81.65643 | 10599 ft | 284 kts | 354° |
| 2026-05-04 19:43 | 29.87506 | -81.66080 | 10126 ft | 282 kts | 335° |
| 2026-05-04 19:44 | 29.89302 | -81.67207 | 9683 ft | 281 kts | 324° |
| 2026-05-04 19:44 | 29.90980 | -81.68509 | 9207 ft | 281 kts | 323° |
| 2026-05-04 19:44 | 29.92609 | -81.69820 | 8770 ft | 280 kts | 323° |
| 2026-05-04 19:44 | 29.94185 | -81.71105 | 8306 ft | 276 kts | 323° |
| 2026-05-04 19:45 | 29.95747 | -81.72388 | 7868 ft | 270 kts | 323° |
| 2026-05-04 19:45 | 29.97284 | -81.73659 | 7426 ft | 266 kts | 323° |
| 2026-05-04 19:45 | 29.98778 | -81.74907 | 7029 ft | 265 kts | 323° |
| 2026-05-04 19:45 | 30.00283 | -81.76178 | 6564 ft | 268 kts | 323° |
| 2026-05-04 19:46 | 30.01798 | -81.77480 | 6123 ft | 269 kts | 323° |
| 2026-05-04 19:46 | 30.03287 | -81.78778 | 5669 ft | 267 kts | 323° |
| 2026-05-04 19:46 | 30.04759 | -81.80074 | 5232 ft | 263 kts | 323° |
| 2026-05-04 19:46 | 30.06214 | -81.81362 | 4802 ft | 259 kts | 323° |
| 2026-05-04 19:47 | 30.07618 | -81.82616 | 4379 ft | 254 kts | 323° |
| 2026-05-04 19:47 | 30.08998 | -81.83832 | 4011 ft | 248 kts | 328° |
| 2026-05-04 19:47 | 30.10576 | -81.84557 | 3944 ft | 237 kts | 350° |
| 2026-05-04 19:47 | 30.12211 | -81.84885 | 3947 ft | 240 kts | 353° |
| 2026-05-04 19:48 | 30.13856 | -81.85170 | 3948 ft | 234 kts | 353° |
| 2026-05-04 19:48 | 30.15406 | -81.85442 | 3955 ft | 217 kts | 353° |
| 2026-05-04 19:48 | 30.16845 | -81.85701 | 3952 ft | 201 kts | 353° |
| 2026-05-04 19:48 | 30.18225 | -81.85953 | 3949 ft | 196 kts | 353° |
| 2026-05-04 19:49 | 30.19598 | -81.86203 | 3947 ft | 197 kts | 353° |
| 2026-05-04 19:49 | 30.20967 | -81.86453 | 3948 ft | 197 kts | 353° |
| 2026-05-04 19:49 | 30.22337 | -81.86702 | 3952 ft | 196 kts | 353° |
| 2026-05-04 19:49 | 30.23734 | -81.86957 | 3965 ft | 196 kts | 353° |
| 2026-05-04 19:50 | 30.25105 | -81.87208 | 3953 ft | 196 kts | 353° |
| 2026-05-04 19:50 | 30.26509 | -81.87469 | 3953 ft | 194 kts | 353° |
| 2026-05-04 19:50 | 30.27815 | -81.87708 | 3952 ft | 185 kts | 353° |
| 2026-05-04 19:50 | 30.29092 | -81.87944 | 3980 ft | 183 kts | 353° |
| 2026-05-04 19:51 | 30.30382 | -81.88183 | 3950 ft | 186 kts | 353° |
| 2026-05-04 19:51 | 30.31675 | -81.88422 | 3948 ft | 185 kts | 353° |
| 2026-05-04 19:51 | 30.32985 | -81.88664 | 3739 ft | 188 kts | 353° |
| 2026-05-04 19:51 | 30.34272 | -81.88908 | 3493 ft | 184 kts | 353° |
| 2026-05-04 19:52 | 30.35553 | -81.89153 | 3251 ft | 184 kts | 353° |
| 2026-05-04 19:52 | 30.36832 | -81.89401 | 3009 ft | 184 kts | 353° |
| 2026-05-04 19:52 | 30.38110 | -81.89648 | 2757 ft | 178 kts | 353° |
| 2026-05-04 19:52 | 30.39371 | -81.89902 | 2498 ft | 170 kts | 353° |
| 2026-05-04 19:53 | 30.40509 | -81.89996 | 2246 ft | 153 kts | 17° |
| 2026-05-04 19:53 | 30.41363 | -81.89327 | 2018 ft | 142 kts | 55° |
| 2026-05-04 19:53 | 30.41975 | -81.88425 | 1953 ft | 141 kts | 54° |
| 2026-05-04 19:53 | 30.42617 | -81.87533 | 1954 ft | 143 kts | 53° |
| 2026-05-04 19:54 | 30.43265 | -81.86639 | 1951 ft | 143 kts | 53° |
| 2026-05-04 19:54 | 30.43905 | -81.85754 | 1955 ft | 142 kts | 53° |
| 2026-05-04 19:54 | 30.44545 | -81.84881 | 1958 ft | 142 kts | 53° |
| 2026-05-04 19:54 | 30.45161 | -81.83984 | 1951 ft | 141 kts | 60° |
| 2026-05-04 19:55 | 30.45592 | -81.82954 | 1957 ft | 141 kts | 71° |
| 2026-05-04 19:55 | 30.45952 | -81.81855 | 1953 ft | 140 kts | 71° |
| 2026-05-04 19:55 | 30.46292 | -81.80786 | 1902 ft | 141 kts | 72° |
| 2026-05-04 19:55 | 30.46619 | -81.79720 | 1739 ft | 139 kts | 72° |
| 2026-05-04 19:56 | 30.46948 | -81.78663 | 1552 ft | 140 kts | 72° |
| 2026-05-04 19:56 | 30.47285 | -81.77572 | 1344 ft | 142 kts | 72° |
| 2026-05-04 19:56 | 30.47614 | -81.76511 | 1161 ft | 139 kts | 72° |
| 2026-05-04 19:56 | 30.47944 | -81.75453 | 994 ft | 139 kts | 72° |
| 2026-05-04 19:57 | 30.48272 | -81.74395 | 849 ft | 139 kts | 72° |
| 2026-05-04 19:57 | 30.48602 | -81.73323 | 654 ft | 139 kts | 72° |
| 2026-05-04 19:57 | 30.48931 | -81.72241 | 482 ft | 136 kts | 73° |
| 2026-05-04 19:57 | 30.49260 | -81.71169 | 290 ft | 142 kts | 72° |
| 2026-05-04 19:58 | 30.49593 | -81.70091 | 109 ft | 140 kts | 72° |
| 2026-05-04 19:58 | 30.49896 | -81.69092 | 25 ft | 107 kts | 70° |
| 2026-05-04 19:58 | 30.50070 | -81.68537 | 25 ft | 41 kts | 70° |
| 2026-05-04 19:58 | 30.50139 | -81.68316 | 25 ft | 27 kts | 74° |
| 2026-05-04 19:59 | 30.50168 | -81.68138 | 25 ft | 17 kts | 88° |
| 2026-05-04 19:59 | 30.50117 | -81.68021 | 25 ft | 15 kts | 142° |